Time;durP1;ratioP1;P1;durP2;ratioP2;P2;SDS_P1;SDS_P2;PMS_P1;PMS_P2;Temp;Humidity;BMP_temperature;BMP_pressure;BME280_temperature;BME280_humidity;BME280_pressure;Samples;Min_cycle;Max_cycle;Signal;HPM_P1;HPM_P2
2024/03/09 00:00:22;;;;;;;10.87;9.73;;;5.90;49.40;;;;;;4983892;28;20619;-59
2024/03/09 00:02:49;;;;;;;10.60;8.67;;;6.00;48.70;;;;;;4995632;28;20372;-59
2024/03/09 00:05:16;;;;;;;12.70;9.53;;;6.20;48.40;;;;;;4991824;28;20650;-59
2024/03/09 00:07:42;;;;;;;10.77;8.90;;;6.30;48.30;;;;;;4995992;28;20645;-59
2024/03/09 00:10:11;;;;;;;10.30;8.47;;;6.20;48.30;;;;;;4995842;28;20210;-59
2024/03/09 00:12:37;;;;;;;11.57;9.10;;;6.00;48.80;;;;;;4996218;28;20230;-57
2024/03/09 00:15:04;;;;;;;11.20;9.47;;;5.80;49.00;;;;;;4995783;28;20586;-59
2024/03/09 00:17:31;;;;;;;10.70;9.50;;;6.10;48.50;;;;;;4995730;28;20577;-59
2024/03/09 00:19:58;;;;;;;22.77;16.73;;;6.00;48.70;;;;;;4988062;28;20563;-59
2024/03/09 00:22:25;;;;;;;11.83;9.93;;;6.00;49.00;;;;;;4993742;28;20261;-57
2024/03/09 00:24:52;;;;;;;13.50;10.37;;;6.00;48.50;;;;;;4996134;28;20237;-59
2024/03/09 00:27:24;;;;;;;13.23;10.07;;;5.90;48.80;;;;;;4995714;28;20236;-59
2024/03/09 00:29:50;;;;;;;11.27;8.47;;;6.00;48.70;;;;;;4996096;28;20209;-59
2024/03/09 00:32:17;;;;;;;9.77;8.60;;;6.10;48.40;;;;;;4996432;28;20230;-58
2024/03/09 00:34:44;;;;;;;11.27;8.97;;;6.00;48.70;;;;;;4990813;28;20218;-59
2024/03/09 00:37:11;;;;;;;11.43;9.03;;;6.00;48.20;;;;;;4994670;28;20221;-59
2024/03/09 00:39:39;;;;;;;9.73;8.50;;;5.90;48.20;;;;;;4992397;28;20214;-59
2024/03/09 00:42:08;;;;;;;10.53;8.47;;;5.80;49.00;;;;;;4995332;28;20240;-59
2024/03/09 00:44:35;;;;;;;10.73;8.27;;;5.60;49.30;;;;;;4995482;28;20649;-57
2024/03/09 00:47:01;;;;;;;9.13;8.17;;;5.70;49.20;;;;;;4995082;28;20224;-58
2024/03/09 00:49:30;;;;;;;11.77;9.83;;;5.90;48.80;;;;;;4994911;28;20229;-59
2024/03/09 00:51:58;;;;;;;10.30;8.87;;;5.90;48.30;;;;;;4982136;28;20711;-58
2024/03/09 00:54:25;;;;;;;11.13;9.03;;;5.70;48.90;;;;;;4992758;28;20277;-58
2024/03/09 00:56:52;;;;;;;11.40;8.97;;;5.60;49.30;;;;;;4991568;28;20205;-59
2024/03/09 00:59:19;;;;;;;9.93;8.03;;;5.70;49.50;;;;;;4994752;28;20211;-58
2024/03/09 01:01:47;;;;;;;10.30;9.13;;;5.60;49.30;;;;;;4994925;28;20307;-59
2024/03/09 01:04:13;;;;;;;9.90;8.83;;;5.60;49.00;;;;;;4994466;28;20213;-56
2024/03/09 01:06:40;;;;;;;10.33;8.50;;;5.70;48.80;;;;;;4994341;28;20229;-59
2024/03/09 01:09:07;;;;;;;10.37;8.33;;;5.50;49.50;;;;;;4994488;28;20210;-59
2024/03/09 01:11:33;;;;;;;9.30;8.13;;;5.40;49.20;;;;;;4990795;28;20225;-57
2024/03/09 01:14:00;;;;;;;11.33;8.73;;;5.60;49.30;;;;;;4987754;28;20220;-58
2024/03/09 01:16:27;;;;;;;10.27;8.10;;;5.50;49.60;;;;;;4990490;28;20248;-58
2024/03/09 01:18:53;;;;;;;9.63;8.63;;;5.70;49.10;;;;;;4998762;28;20214;-57
2024/03/09 01:21:20;;;;;;;9.97;8.67;;;5.70;49.20;;;;;;4995286;28;20237;-57
2024/03/09 01:23:47;;;;;;;9.20;8.20;;;5.70;49.10;;;;;;4998327;28;20206;-57
2024/03/09 01:26:14;;;;;;;9.23;8.33;;;5.60;48.60;;;;;;4997955;28;20228;-56
2024/03/09 01:28:41;;;;;;;10.50;8.60;;;5.50;49.20;;;;;;4997835;28;20220;-57
2024/03/09 01:31:10;;;;;;;9.37;8.37;;;5.60;48.90;;;;;;4993481;28;20252;-59
2024/03/09 01:33:38;;;;;;;9.87;8.33;;;5.60;49.40;;;;;;4996065;28;20208;-59
2024/03/09 01:36:04;;;;;;;9.97;8.43;;;5.70;48.90;;;;;;4992950;28;20677;-57
2024/03/09 01:38:31;;;;;;;9.80;8.60;;;5.50;49.10;;;;;;4989032;28;20209;-58
2024/03/09 01:40:58;;;;;;;12.47;9.10;;;5.50;49.00;;;;;;4997507;28;20213;-58
2024/03/09 01:43:24;;;;;;;9.80;8.63;;;5.60;48.90;;;;;;4997389;28;20583;-58
2024/03/09 01:45:51;;;;;;;9.90;8.90;;;5.60;48.90;;;;;;4997965;28;20240;-59
2024/03/09 01:48:20;;;;;;;9.10;7.57;;;5.70;48.50;;;;;;4996290;28;20244;-58
2024/03/09 01:50:46;;;;;;;8.50;7.67;;;5.70;48.40;;;;;;4998109;28;20213;-58
2024/03/09 01:53:13;;;;;;;9.20;8.23;;;5.40;48.90;;;;;;4998685;28;20221;-56
2024/03/09 01:55:40;;;;;;;11.43;8.73;;;5.40;49.20;;;;;;4987684;28;20210;-56
2024/03/09 01:58:06;;;;;;;10.87;8.43;;;5.20;49.90;;;;;;4988423;28;20276;-58
2024/03/09 02:00:34;;;;;;;10.70;8.80;;;5.10;49.80;;;;;;4992366;28;20232;-58
2024/03/09 02:03:01;;;;;;;10.93;8.47;;;5.30;50.00;;;;;;4993513;28;20241;-57
2024/03/09 02:05:28;;;;;;;9.30;8.40;;;5.30;49.30;;;;;;4992875;28;20207;-57
2024/03/09 02:07:55;;;;;;;11.57;9.27;;;5.30;49.40;;;;;;4994545;28;20229;-58
2024/03/09 02:10:21;;;;;;;10.37;8.13;;;5.10;49.60;;;;;;5001939;28;20228;-59
2024/03/09 02:12:48;;;;;;;12.73;8.43;;;5.20;49.70;;;;;;4999651;28;20634;-56
2024/03/09 02:15:16;;;;;;;12.10;8.93;;;5.20;49.90;;;;;;4999735;28;20218;-58
2024/03/09 02:17:42;;;;;;;9.53;8.53;;;5.00;50.30;;;;;;4992570;28;20204;-58
2024/03/09 02:20:11;;;;;;;10.70;9.07;;;5.20;50.00;;;;;;4993167;28;20205;-57
2024/03/09 02:22:37;;;;;;;10.37;8.77;;;5.10;49.80;;;;;;4996624;28;20233;-56
2024/03/09 02:25:05;;;;;;;10.13;8.87;;;5.10;49.90;;;;;;4997698;28;20209;-58
2024/03/09 02:27:31;;;;;;;9.20;8.17;;;4.90;50.20;;;;;;4997460;28;20239;-59
2024/03/09 02:29:58;;;;;;;11.27;9.13;;;5.10;50.40;;;;;;4998193;28;20208;-58
2024/03/09 02:32:24;;;;;;;11.50;9.37;;;5.00;50.30;;;;;;4997488;28;20224;-58
2024/03/09 02:34:51;;;;;;;10.83;8.60;;;5.00;50.30;;;;;;4993675;28;20210;-57
2024/03/09 02:37:18;;;;;;;11.57;9.20;;;5.20;50.50;;;;;;4983052;28;20206;-59
2024/03/09 02:39:45;;;;;;;9.63;8.67;;;5.30;50.10;;;;;;4997137;28;20213;-58
2024/03/09 02:42:12;;;;;;;11.20;9.20;;;5.10;50.10;;;;;;4998192;28;20228;-58
2024/03/09 02:44:40;;;;;;;9.87;8.23;;;5.00;50.40;;;;;;4989705;28;20209;-59
2024/03/09 02:47:07;;;;;;;10.40;9.03;;;5.20;50.50;;;;;;4998753;28;20220;-59
2024/03/09 02:49:35;;;;;;;10.23;9.03;;;5.20;50.50;;;;;;4997223;28;20213;-58
2024/03/09 02:52:01;;;;;;;12.70;9.17;;;5.30;50.00;;;;;;4997431;28;20768;-58
2024/03/09 02:54:28;;;;;;;12.23;9.40;;;5.40;49.60;;;;;;4991210;28;20214;-58
2024/03/09 02:56:54;;;;;;;10.80;8.57;;;5.40;49.70;;;;;;4992073;28;20212;-58
2024/03/09 02:59:22;;;;;;;11.87;9.53;;;5.20;50.00;;;;;;4997158;28;20204;-58
2024/03/09 03:01:49;;;;;;;10.87;9.70;;;5.00;50.70;;;;;;4996851;28;20226;-58
2024/03/09 03:04:15;;;;;;;9.87;8.60;;;5.10;50.40;;;;;;4996441;28;20296;-57
2024/03/09 03:06:41;;;;;;;12.27;10.20;;;5.00;51.10;;;;;;4996093;28;20271;-58
2024/03/09 03:09:12;;;;;;;11.27;10.07;;;5.00;50.60;;;;;;4996468;28;20578;-56
2024/03/09 03:11:40;;;;;;;10.67;9.10;;;5.10;50.40;;;;;;4981020;28;20238;-57
2024/03/09 03:14:06;;;;;;;10.57;9.30;;;5.20;50.50;;;;;;4987955;28;20717;-58
2024/03/09 03:16:35;;;;;;;10.37;9.10;;;4.90;50.70;;;;;;4995354;28;20630;-57
2024/03/09 03:19:02;;;;;;;11.57;9.00;;;5.00;50.60;;;;;;4994695;28;20641;-57
2024/03/09 03:21:28;;;;;;;9.63;8.27;;;5.10;50.80;;;;;;4994423;28;20235;-58
2024/03/09 03:23:55;;;;;;;10.77;8.97;;;5.20;50.50;;;;;;4995838;28;20703;-58
2024/03/09 03:26:21;;;;;;;9.47;8.40;;;5.30;50.20;;;;;;4995983;28;20839;-56
2024/03/09 03:28:48;;;;;;;9.50;8.50;;;5.00;50.40;;;;;;4992523;28;20715;-56
2024/03/09 03:31:16;;;;;;;10.37;9.27;;;5.20;50.50;;;;;;4986811;28;20205;-58
2024/03/09 03:33:43;;;;;;;12.03;9.13;;;5.10;50.40;;;;;;4995382;28;20212;-58
2024/03/09 03:36:09;;;;;;;9.30;8.33;;;5.20;50.50;;;;;;4995893;28;20214;-58
2024/03/09 03:38:36;;;;;;;10.97;9.10;;;5.20;50.50;;;;;;4996197;28;20245;-57
2024/03/09 03:41:02;;;;;;;10.33;8.87;;;5.30;50.00;;;;;;4996275;28;20213;-55
2024/03/09 03:43:29;;;;;;;10.80;8.90;;;5.20;50.50;;;;;;4994881;28;20208;-58
2024/03/09 03:45:57;;;;;;;8.90;8.00;;;5.10;50.40;;;;;;4994730;28;20217;-58
2024/03/09 03:48:23;;;;;;;10.13;8.70;;;5.20;50.50;;;;;;4992000;28;20239;-58
2024/03/09 03:50:50;;;;;;;9.87;8.87;;;5.10;50.90;;;;;;4995884;28;20208;-57
2024/03/09 03:53:16;;;;;;;10.07;8.90;;;5.20;51.00;;;;;;4995462;28;20239;-58
2024/03/09 03:55:43;;;;;;;10.90;8.67;;;5.30;50.60;;;;;;4995652;28;20217;-58
2024/03/09 03:58:10;;;;;;;10.00;8.87;;;5.40;50.30;;;;;;4996186;28;20592;-58
2024/03/09 04:00:37;;;;;;;11.43;8.20;;;5.30;50.60;;;;;;4995943;28;20518;-57
2024/03/09 04:03:03;;;;;;;10.10;9.10;;;5.30;50.50;;;;;;4988792;28;20252;-58
2024/03/09 04:05:30;;;;;;;11.73;9.40;;;5.20;50.20;;;;;;4995639;28;20212;-56
2024/03/09 04:07:56;;;;;;;11.93;8.93;;;5.20;50.50;;;;;;4996566;28;20233;-58
2024/03/09 04:10:23;;;;;;;10.10;8.33;;;5.30;50.60;;;;;;4996095;28;20220;-59
2024/03/09 04:12:50;;;;;;;11.00;8.90;;;5.20;50.50;;;;;;4995609;28;20233;-58
2024/03/09 04:15:16;;;;;;;10.23;8.77;;;5.30;49.90;;;;;;4996360;28;20233;-58
2024/03/09 04:17:43;;;;;;;9.70;8.57;;;5.30;50.00;;;;;;4993609;28;20216;-58
2024/03/09 04:20:10;;;;;;;10.40;8.37;;;5.30;50.30;;;;;;4990203;28;20201;-59
2024/03/09 04:22:37;;;;;;;10.80;9.00;;;5.20;50.20;;;;;;4995776;28;20740;-57
2024/03/09 04:25:05;;;;;;;11.70;9.80;;;4.90;50.40;;;;;;4996529;28;20711;-58
2024/03/09 04:27:31;;;;;;;9.93;8.90;;;5.00;50.30;;;;;;4996384;28;20228;-58
2024/03/09 04:29:59;;;;;;;9.50;8.50;;;5.10;50.90;;;;;;4995869;28;20213;-56
2024/03/09 04:32:27;;;;;;;10.60;9.30;;;5.00;50.50;;;;;;4995633;28;20784;-58
2024/03/09 04:34:53;;;;;;;11.13;9.57;;;5.10;50.70;;;;;;4995755;28;20292;-58
2024/03/09 04:37:25;;;;;;;11.43;9.57;;;5.20;50.50;;;;;;4986773;28;20206;-57
2024/03/09 04:39:51;;;;;;;10.60;9.20;;;5.10;50.40;;;;;;4988262;28;20222;-58
2024/03/09 04:42:18;;;;;;;9.90;8.90;;;5.00;50.30;;;;;;4994474;28;20315;-58
2024/03/09 04:44:45;;;;;;;11.27;9.00;;;4.90;51.20;;;;;;4995547;28;20212;-59
2024/03/09 04:47:12;;;;;;;11.30;9.30;;;5.00;51.10;;;;;;4994816;28;20224;-58
2024/03/09 04:49:39;;;;;;;12.80;9.20;;;5.10;50.70;;;;;;4989207;28;20239;-58
2024/03/09 04:52:06;;;;;;;9.93;8.43;;;5.10;50.40;;;;;;4998598;28;20237;-56
2024/03/09 04:54:32;;;;;;;10.63;9.53;;;5.20;50.50;;;;;;4993043;28;20280;-58
2024/03/09 04:56:59;;;;;;;10.87;9.33;;;5.10;50.40;;;;;;4998782;28;20213;-57
2024/03/09 04:59:26;;;;;;;11.37;9.67;;;4.80;50.90;;;;;;4999570;28;20220;-58
2024/03/09 05:01:53;;;;;;;11.67;9.47;;;4.80;51.50;;;;;;4999141;28;20240;-56
2024/03/09 05:04:19;;;;;;;10.30;8.87;;;4.90;51.30;;;;;;4999068;28;20287;-57
2024/03/09 05:06:48;;;;;;;9.50;8.50;;;5.00;51.30;;;;;;4998477;28;20215;-56
2024/03/09 05:09:15;;;;;;;11.53;9.53;;;5.00;51.00;;;;;;4999577;28;20216;-58
2024/03/09 05:11:42;;;;;;;12.13;9.70;;;5.00;51.00;;;;;;4988635;28;20226;-58
2024/03/09 05:14:10;;;;;;;11.77;9.17;;;4.90;51.30;;;;;;4998939;28;20269;-56
2024/03/09 05:16:37;;;;;;;9.53;8.53;;;4.70;51.90;;;;;;4999014;28;20275;-58
2024/03/09 05:19:05;;;;;;;11.43;9.40;;;4.80;51.60;;;;;;4998875;28;20215;-58
2024/03/09 05:21:34;;;;;;;11.13;9.20;;;4.80;51.10;;;;;;4998609;28;20243;-58
2024/03/09 05:24:00;;;;;;;10.00;9.00;;;4.80;51.20;;;;;;4998627;28;20219;-58
2024/03/09 05:26:32;;;;;;;11.47;9.77;;;4.90;51.10;;;;;;4998906;28;20217;-58
2024/03/09 05:28:58;;;;;;;9.47;8.47;;;4.90;50.90;;;;;;4987040;28;20241;-58
2024/03/09 05:31:26;;;;;;;10.80;9.13;;;4.80;51.30;;;;;;4996591;28;20237;-58
2024/03/09 05:33:53;;;;;;;10.07;8.67;;;5.00;51.20;;;;;;4998996;28;20200;-58
2024/03/09 05:36:19;;;;;;;11.80;10.33;;;4.80;51.10;;;;;;4998567;28;20207;-56
2024/03/09 05:38:48;;;;;;;11.90;9.97;;;4.80;51.20;;;;;;4998964;28;20208;-58
2024/03/09 05:41:15;;;;;;;13.77;10.00;;;4.50;52.50;;;;;;5000064;28;20209;-58
2024/03/09 05:43:42;;;;;;;11.40;9.87;;;4.20;53.40;;;;;;5003586;28;20214;-57
2024/03/09 05:46:09;;;;;;;12.60;10.03;;;4.40;53.20;;;;;;4990923;28;20215;-57
2024/03/09 05:48:36;;;;;;;11.80;9.27;;;4.50;52.60;;;;;;5002321;28;20294;-57
2024/03/09 05:51:04;;;;;;;12.10;9.63;;;4.40;52.50;;;;;;5002205;28;20211;-59
2024/03/09 05:53:34;;;;;;;11.27;8.83;;;4.40;52.10;;;;;;5002492;28;20267;-57
2024/03/09 05:56:01;;;;;;;12.47;10.73;;;4.40;52.00;;;;;;5001807;28;20204;-57
2024/03/09 05:58:27;;;;;;;11.23;9.07;;;4.40;52.20;;;;;;5000889;28;20220;-57
2024/03/09 06:00:54;;;;;;;12.00;9.53;;;4.60;51.70;;;;;;4995406;28;20202;-58
2024/03/09 06:03:20;;;;;;;11.53;9.80;;;4.40;51.90;;;;;;4991110;28;20648;-58
2024/03/09 06:05:47;;;;;;;9.60;8.27;;;4.50;52.30;;;;;;4999506;28;20458;-58
2024/03/09 06:08:14;;;;;;;11.53;9.30;;;4.50;52.30;;;;;;4999722;28;20259;-58
2024/03/09 06:10:40;;;;;;;12.43;10.20;;;4.40;51.60;;;;;;4999758;28;20626;-58
2024/03/09 06:13:07;;;;;;;13.07;10.30;;;4.50;51.80;;;;;;4999294;28;20937;-58
2024/03/09 06:15:33;;;;;;;11.40;10.23;;;4.50;51.60;;;;;;4999223;28;20590;-58
2024/03/09 06:18:03;;;;;;;12.20;10.20;;;4.50;51.80;;;;;;4996143;28;20596;-57
2024/03/09 06:20:32;;;;;;;11.97;10.17;;;4.60;52.00;;;;;;4991982;28;20223;-56
2024/03/09 06:22:58;;;;;;;14.00;10.47;;;4.60;51.50;;;;;;4998344;28;20231;-57
2024/03/09 06:25:25;;;;;;;11.77;10.20;;;4.60;51.90;;;;;;4998276;28;20292;-58
2024/03/09 06:27:52;;;;;;;12.53;10.27;;;4.70;51.70;;;;;;4998334;28;20258;-58
2024/03/09 06:30:19;;;;;;;12.77;10.97;;;4.70;51.50;;;;;;4997798;28;20211;-57
2024/03/09 06:32:46;;;;;;;13.07;10.43;;;4.70;52.00;;;;;;4997639;28;20224;-57
2024/03/09 06:35:13;;;;;;;13.50;10.47;;;4.80;51.70;;;;;;5002057;28;20205;-59
2024/03/09 06:37:40;;;;;;;13.87;10.63;;;4.70;52.10;;;;;;4994469;28;20231;-57
2024/03/09 06:40:06;;;;;;;12.37;10.40;;;4.60;52.40;;;;;;4994363;28;20241;-58
2024/03/09 06:42:33;;;;;;;11.60;10.20;;;4.70;52.20;;;;;;4997213;28;20235;-58
2024/03/09 06:45:00;;;;;;;13.20;10.57;;;5.10;51.40;;;;;;4997158;28;20204;-57
2024/03/09 06:47:27;;;;;;;13.37;10.57;;;5.20;50.50;;;;;;4997281;28;20592;-57
2024/03/09 06:49:56;;;;;;;11.60;10.27;;;5.60;49.70;;;;;;5003700;28;20209;-57
2024/03/09 06:52:22;;;;;;;11.13;9.93;;;5.80;49.30;;;;;;4997463;28;20225;-58
2024/03/09 06:54:49;;;;;;;11.00;9.90;;;6.00;49.00;;;;;;4990036;28;20205;-55
2024/03/09 06:57:16;;;;;;;11.53;10.23;;;6.00;48.60;;;;;;4993592;28;20301;-58
2024/03/09 06:59:42;;;;;;;12.73;9.93;;;6.20;48.20;;;;;;4994908;28;20210;-57
2024/03/09 07:02:10;;;;;;;12.23;10.00;;;6.30;48.10;;;;;;4989916;28;20242;-57
2024/03/09 07:04:37;;;;;;;13.70;9.80;;;6.20;48.40;;;;;;4989810;28;20213;-57
2024/03/09 07:07:03;;;;;;;11.97;9.77;;;6.20;47.90;;;;;;4996853;28;20318;-57
2024/03/09 07:09:30;;;;;;;13.30;10.30;;;6.10;47.80;;;;;;4996778;28;20713;-57
2024/03/09 07:11:56;;;;;;;12.03;9.47;;;6.00;48.40;;;;;;4989635;28;20226;-59
2024/03/09 07:14:24;;;;;;;11.43;10.03;;;6.00;48.30;;;;;;4992730;28;20210;-57
2024/03/09 07:16:51;;;;;;;15.40;11.40;;;5.90;48.60;;;;;;4992086;28;20233;-57
2024/03/09 07:19:18;;;;;;;11.33;10.13;;;6.10;49.30;;;;;;4987414;28;21806;-58
2024/03/09 07:21:44;;;;;;;13.97;11.13;;;6.10;48.80;;;;;;4984812;28;20667;-58
2024/03/09 07:24:11;;;;;;;13.97;10.67;;;6.00;48.80;;;;;;4985243;28;20239;-58
2024/03/09 07:26:37;;;;;;;13.90;10.47;;;6.10;49.20;;;;;;4997093;28;20226;-58
2024/03/09 07:29:05;;;;;;;11.67;10.07;;;6.20;48.90;;;;;;4994312;28;20237;-58
2024/03/09 07:31:31;;;;;;;11.63;9.90;;;6.20;48.80;;;;;;4986876;28;20270;-56
2024/03/09 07:33:58;;;;;;;10.80;9.27;;;6.20;48.50;;;;;;4993928;28;20213;-58
2024/03/09 07:36:25;;;;;;;13.87;10.87;;;6.20;48.20;;;;;;4993287;28;20214;-57
2024/03/09 07:38:51;;;;;;;12.77;10.13;;;6.00;48.70;;;;;;4989898;28;20204;-57
2024/03/09 07:41:19;;;;;;;12.57;10.60;;;6.20;48.90;;;;;;4993510;28;20229;-57
2024/03/09 07:43:45;;;;;;;12.07;10.40;;;6.20;49.20;;;;;;4994267;28;20221;-58
2024/03/09 07:46:12;;;;;;;10.53;9.43;;;6.30;48.90;;;;;;4994295;28;20213;-57
2024/03/09 07:48:41;;;;;;;11.63;10.10;;;6.30;49.10;;;;;;4988745;28;20237;-58
2024/03/09 07:51:10;;;;;;;11.33;9.80;;;6.40;49.40;;;;;;4977910;28;20215;-59
2024/03/09 07:53:38;;;;;;;11.47;9.80;;;6.50;48.60;;;;;;4992549;28;20203;-57
2024/03/09 07:56:04;;;;;;;13.77;10.70;;;6.60;48.60;;;;;;4995846;28;20207;-59
2024/03/09 07:58:34;;;;;;;13.63;9.80;;;6.50;48.80;;;;;;4986927;28;20202;-56
2024/03/09 08:01:05;;;;;;;12.90;10.90;;;6.50;48.50;;;;;;4996030;28;20207;-58
2024/03/09 08:03:33;;;;;;;14.53;10.83;;;6.50;48.10;;;;;;4984916;28;20460;-60
2024/03/09 08:06:00;;;;;;;12.47;10.57;;;6.50;48.50;;;;;;4987643;28;20215;-58
2024/03/09 08:08:26;;;;;;;13.47;10.47;;;6.70;48.40;;;;;;4986694;28;20230;-57
2024/03/09 08:10:54;;;;;;;12.40;9.93;;;6.80;48.10;;;;;;4980134;28;20234;-58
2024/03/09 08:13:22;;;;;;;12.33;10.60;;;6.90;47.50;;;;;;4989493;28;20226;-57
2024/03/09 08:15:49;;;;;;;12.57;9.47;;;7.00;47.90;;;;;;4989874;28;20210;-56
2024/03/09 08:18:16;;;;;;;10.80;9.70;;;7.10;47.60;;;;;;4993749;28;20584;-56
2024/03/09 08:20:43;;;;;;;12.37;10.53;;;7.20;47.70;;;;;;4997398;28;20640;-57
2024/03/09 08:23:10;;;;;;;11.50;10.13;;;7.20;46.80;;;;;;4993601;28;20234;-58
2024/03/09 08:25:37;;;;;;;11.90;9.03;;;7.40;47.80;;;;;;4992101;28;20238;-58
2024/03/09 08:28:03;;;;;;;12.33;10.00;;;7.60;46.90;;;;;;4985974;28;20361;-59
2024/03/09 08:30:31;;;;;;;13.20;9.50;;;7.70;45.90;;;;;;4981559;28;20208;-57
2024/03/09 08:32:58;;;;;;;10.00;8.67;;;7.90;45.70;;;;;;4997232;28;20406;-58
2024/03/09 08:35:25;;;;;;;11.67;9.33;;;8.30;45.10;;;;;;4978943;28;20223;-58
2024/03/09 08:37:52;;;;;;;10.60;8.60;;;8.60;44.40;;;;;;4995156;28;20222;-58
2024/03/09 08:40:19;;;;;;;11.10;9.77;;;8.90;44.10;;;;;;4983202;28;20671;-58
2024/03/09 08:42:47;;;;;;;12.23;9.73;;;9.10;43.40;;;;;;4989341;28;20575;-57
2024/03/09 08:45:16;;;;;;;11.10;9.23;;;9.20;43.50;;;;;;4987939;28;20246;-59
2024/03/09 08:47:42;;;;;;;10.77;9.20;;;9.50;43.60;;;;;;4984685;28;20210;-58
2024/03/09 08:50:10;;;;;;;9.50;8.00;;;9.70;42.50;;;;;;4980526;28;20251;-58
2024/03/09 08:52:37;;;;;;;10.57;9.07;;;9.90;41.60;;;;;;4984518;28;20249;-59
2024/03/09 08:55:03;;;;;;;10.07;7.87;;;10.00;40.40;;;;;;4989858;28;20305;-65
2024/03/09 08:57:31;;;;;;;10.33;8.83;;;10.20;40.10;;;;;;4967447;28;20235;-58
2024/03/09 09:00:00;;;;;;;9.73;8.17;;;10.40;39.70;;;;;;4981938;28;20211;-59
2024/03/09 09:02:27;;;;;;;9.67;8.60;;;10.60;40.40;;;;;;4983065;28;20295;-59
2024/03/09 09:04:53;;;;;;;9.93;8.10;;;10.60;39.10;;;;;;4987043;28;20211;-59
2024/03/09 09:07:20;;;;;;;9.67;8.43;;;10.70;39.20;;;;;;4989939;28;20207;-60
2024/03/09 09:09:47;;;;;;;10.23;8.40;;;10.70;38.60;;;;;;4987060;28;20227;-58
2024/03/09 09:12:13;;;;;;;10.67;8.80;;;10.90;38.50;;;;;;4986467;28;20224;-57
2024/03/09 09:14:40;;;;;;;9.47;8.20;;;10.90;38.60;;;;;;4978579;28;20225;-59
2024/03/09 09:17:07;;;;;;;9.50;8.00;;;11.20;37.60;;;;;;4978959;28;20244;-59
2024/03/09 09:19:33;;;;;;;8.23;7.07;;;11.60;37.20;;;;;;4973624;28;20209;-58
2024/03/09 09:21:59;;;;;;;10.10;8.10;;;11.70;37.10;;;;;;4982751;28;20244;-59
2024/03/09 09:24:26;;;;;;;10.07;7.97;;;11.70;37.10;;;;;;4989511;28;20197;-61
2024/03/09 09:26:53;;;;;;;8.57;7.70;;;11.80;37.50;;;;;;4988918;28;20667;-68
2024/03/09 09:29:19;;;;;;;9.63;7.87;;;11.80;36.80;;;;;;4986094;28;20301;-56
2024/03/09 09:31:46;;;;;;;7.80;7.00;;;12.00;36.60;;;;;;4981310;28;20236;-57
2024/03/09 09:34:13;;;;;;;7.30;6.60;;;12.10;36.10;;;;;;4993040;28;20218;-57
2024/03/09 09:36:40;;;;;;;7.77;7.07;;;12.30;35.50;;;;;;4981571;28;20210;-58
2024/03/09 09:39:13;;;;;;;7.37;6.67;;;12.60;35.90;;;;;;4991090;28;20287;-57
2024/03/09 09:41:40;;;;;;;8.27;6.57;;;12.50;35.50;;;;;;4990686;28;20224;-54
2024/03/09 09:44:08;;;;;;;6.40;5.83;;;12.70;34.40;;;;;;4995311;28;20219;-59
2024/03/09 09:46:34;;;;;;;7.13;6.43;;;13.00;35.20;;;;;;5002682;28;20301;-59
2024/03/09 09:49:01;;;;;;;6.47;5.77;;;13.00;35.30;;;;;;5000553;28;20259;-57
2024/03/09 09:51:28;;;;;;;7.03;6.07;;;13.30;34.10;;;;;;4996641;28;20246;-59
2024/03/09 09:53:54;;;;;;;7.13;6.13;;;13.60;34.10;;;;;;4998464;28;20206;-57
2024/03/09 09:56:21;;;;;;;6.00;5.27;;;14.00;33.70;;;;;;4999935;28;20213;-56
2024/03/09 09:58:48;;;;;;;6.27;5.20;;;13.90;32.80;;;;;;5000081;28;20839;-59
2024/03/09 10:01:15;;;;;;;5.37;4.87;;;13.90;32.30;;;;;;4999374;28;20221;-58
2024/03/09 10:03:44;;;;;;;5.87;4.80;;;13.90;33.40;;;;;;5001273;28;20236;-59
2024/03/09 10:06:11;;;;;;;5.70;4.97;;;13.90;31.80;;;;;;5002970;28;20221;-58
2024/03/09 10:08:38;;;;;;;6.10;5.50;;;14.30;32.20;;;;;;4994560;28;20233;-59
2024/03/09 10:11:04;;;;;;;6.40;5.53;;;14.50;31.20;;;;;;4997191;28;20250;-59
2024/03/09 10:13:31;;;;;;;5.30;4.87;;;14.70;31.40;;;;;;5001936;28;20589;-59
2024/03/09 10:15:57;;;;;;;6.37;5.27;;;14.70;31.40;;;;;;5001759;28;20246;-59
2024/03/09 10:18:24;;;;;;;5.90;5.10;;;15.00;30.10;;;;;;5000071;28;20215;-58
2024/03/09 10:20:51;;;;;;;5.77;5.13;;;15.00;30.20;;;;;;4998997;28;20216;-59
2024/03/09 10:23:18;;;;;;;6.07;4.93;;;15.40;29.60;;;;;;5001270;28;20328;-59
2024/03/09 10:25:45;;;;;;;5.20;4.70;;;15.50;29.40;;;;;;4994465;28;20270;-58
2024/03/09 10:28:12;;;;;;;5.20;4.70;;;15.50;29.10;;;;;;4994640;28;20210;-59
2024/03/09 10:30:38;;;;;;;5.50;4.80;;;15.90;29.00;;;;;;5000340;28;20214;-59
2024/03/09 10:33:07;;;;;;;4.50;4.10;;;15.80;29.30;;;;;;4992393;28;20234;-58
2024/03/09 10:35:33;;;;;;;4.00;3.70;;;15.80;27.80;;;;;;4994288;28;20258;-59
2024/03/09 10:38:00;;;;;;;4.53;4.13;;;16.10;27.20;;;;;;4988871;28;20211;-58
2024/03/09 10:40:27;;;;;;;5.17;4.17;;;16.10;27.90;;;;;;4990459;28;20638;-58
2024/03/09 10:42:53;;;;;;;3.83;3.43;;;16.30;27.80;;;;;;4990250;28;20235;-59
2024/03/09 10:45:20;;;;;;;4.67;4.27;;;16.50;26.80;;;;;;4989580;28;20293;-60
2024/03/09 10:47:46;;;;;;;4.53;4.03;;;16.70;26.80;;;;;;4997469;28;20223;-59
2024/03/09 10:50:16;;;;;;;4.97;4.47;;;17.10;27.80;;;;;;4997497;28;20720;-56
2024/03/09 10:52:44;;;;;;;5.00;4.27;;;16.60;28.60;;;;;;4995295;28;20258;-58
2024/03/09 10:55:11;;;;;;;4.60;4.20;;;16.90;27.70;;;;;;4997126;28;20222;-59
2024/03/09 10:57:39;;;;;;;4.00;3.60;;;16.90;28.20;;;;;;4996794;28;20207;-59
2024/03/09 11:00:06;;;;;;;4.13;3.73;;;17.60;26.00;;;;;;4991826;28;20291;-59
2024/03/09 11:02:35;;;;;;;5.13;4.47;;;17.50;26.70;;;;;;4992448;28;20244;-59
2024/03/09 11:05:01;;;;;;;5.25;4.10;;;17.50;27.00;;;;;;4996621;28;20291;-59
2024/03/09 11:07:29;;;;;;;4.40;4.00;;;17.70;27.20;;;;;;4996037;28;20219;-59
2024/03/09 11:09:56;;;;;;;3.95;3.22;;;18.20;26.20;;;;;;4994265;28;20247;-58
2024/03/09 11:12:22;;;;;;;4.30;3.90;;;18.40;25.30;;;;;;4996102;28;20234;-59
2024/03/09 11:14:50;;;;;;;4.32;3.92;;;18.60;26.10;;;;;;4995625;28;20211;-60
2024/03/09 11:17:16;;;;;;;4.30;3.90;;;18.20;26.30;;;;;;4990439;28;20218;-59
2024/03/09 11:19:43;;;;;;;4.05;3.60;;;18.80;25.90;;;;;;4993323;28;20396;-59
2024/03/09 11:22:11;;;;;;;4.43;4.03;;;19.30;25.50;;;;;;4990954;28;20745;-59
2024/03/09 11:24:39;;;;;;;6.18;3.85;;;19.30;25.60;;;;;;4995315;28;20299;-59
2024/03/09 11:27:06;;;;;;;3.65;3.20;;;19.20;25.20;;;;;;4994518;28;20216;-59
2024/03/09 11:29:33;;;;;;;4.15;3.75;;;19.60;24.40;;;;;;4995393;28;20625;-59
2024/03/09 11:31:59;;;;;;;4.97;3.85;;;19.50;24.30;;;;;;4989757;28;20227;-59
2024/03/09 11:34:26;;;;;;;4.38;3.97;;;19.90;24.40;;;;;;4989803;28;20678;-58
2024/03/09 11:36:53;;;;;;;3.90;3.50;;;19.50;24.60;;;;;;4992067;28;20234;-58
2024/03/09 11:39:21;;;;;;;5.18;3.72;;;19.30;24.50;;;;;;4988946;28;20216;-59
2024/03/09 11:41:48;;;;;;;4.10;3.75;;;19.50;25.00;;;;;;4991533;28;20282;-65
2024/03/09 11:44:15;;;;;;;3.75;3.40;;;19.60;25.70;;;;;;4973175;28;20209;-60
2024/03/09 11:46:41;;;;;;;3.92;3.53;;;19.60;24.30;;;;;;4980032;28;20578;-59
2024/03/09 11:49:08;;;;;;;5.13;3.80;;;20.30;24.40;;;;;;4988885;28;20224;-59
2024/03/09 11:51:35;;;;;;;3.85;3.55;;;20.90;24.00;;;;;;4980114;28;20294;-59
2024/03/09 11:54:02;;;;;;;3.88;3.47;;;21.50;23.40;;;;;;4995475;28;20287;-59
2024/03/09 11:56:29;;;;;;;3.38;2.80;;;21.70;22.80;;;;;;4977407;28;20294;-58
2024/03/09 11:58:56;;;;;;;2.88;2.58;;;21.40;21.60;;;;;;4986074;28;20203;-58
2024/03/09 12:01:23;;;;;;;2.67;2.47;;;21.40;22.40;;;;;;4984206;28;20598;-58
2024/03/09 12:03:49;;;;;;;3.33;2.85;;;21.50;22.60;;;;;;4990535;28;20553;-57
2024/03/09 12:06:16;;;;;;;4.53;3.17;;;21.40;22.80;;;;;;4993624;28;20215;-59
2024/03/09 12:08:42;;;;;;;3.20;2.90;;;21.20;22.90;;;;;;4991265;28;20214;-60
2024/03/09 12:11:09;;;;;;;3.17;2.92;;;21.40;23.00;;;;;;4995404;28;20298;-59
2024/03/09 12:13:35;;;;;;;3.75;3.17;;;21.50;23.10;;;;;;4996070;28;20203;-59
2024/03/09 12:16:02;;;;;;;3.95;3.10;;;21.40;23.00;;;;;;4985258;28;20208;-58
2024/03/09 12:18:28;;;;;;;3.40;3.10;;;21.60;23.20;;;;;;4991596;28;20252;-59
2024/03/09 12:20:55;;;;;;;3.03;2.70;;;21.40;23.60;;;;;;4989008;28;20219;-57
2024/03/09 12:23:21;;;;;;;3.10;2.80;;;21.00;22.80;;;;;;4994931;28;20207;-59
2024/03/09 12:25:48;;;;;;;3.00;2.70;;;21.10;23.30;;;;;;4982250;28;20207;-59
2024/03/09 12:28:15;;;;;;;3.75;2.60;;;21.40;22.50;;;;;;4994197;28;20200;-56
2024/03/09 12:30:41;;;;;;;2.55;2.20;;;21.30;22.80;;;;;;4994243;28;20701;-58
2024/03/09 12:33:10;;;;;;;2.40;2.20;;;22.30;21.80;;;;;;4990130;28;20220;-57
2024/03/09 12:35:37;;;;;;;2.20;2.00;;;22.00;21.20;;;;;;4990042;28;20231;-57
2024/03/09 12:38:05;;;;;;;2.72;2.33;;;22.20;21.40;;;;;;4990749;28;20211;-58
2024/03/09 12:40:31;;;;;;;3.47;2.50;;;22.90;20.90;;;;;;4993705;28;20713;-58
2024/03/09 12:42:58;;;;;;;2.25;2.05;;;21.80;20.90;;;;;;4994308;28;20232;-60